Ted Stevens Anchorage International Airport
PANC : rendu visible

Aérodrome :











RETROUVEZ-NOUS SUR...

 
LOGIN :

S'inscrire | Disclaimer

   EN    FR    IT 

 









Légende :    VFR   VFR Marginal   IFR   IFR Intensif   IFR Très Intensif
Visi : 
Plafond : 
>= 8 km
>= 3000ft
5 à 8 km
1000 à 3000 ft
1500m à 5 km
500 à 1000 ft
800 à 1500m
200 à 500 ft
< 800m
< 200 ft
Symboles :   Orages  Brouillard  Fortes neiges  Fortes précipitations  Vent > 20 kt







- Altitude de l'aérodrome : 152 ft
- Code IATA : ANC


PANC - Ted Stevens Anchorage International

DERNIER METAR :
  • 240153Z 14012G21KT 10SM -RA SCT045 BKN065 OVC095 20/12 A2986 RMK AO2 RAB45 SLP113 P0000 T02000122

METARs EXPIRÉS :
  • 240053Z 15014G22KT 10SM FEW045 SCT065 OVC095 22/13 A2985 RMK AO2 SLP107 T02170128
  • 232353Z 15014G21KT 10SM FEW045 BKN090 BKN150 22/13 A2985 RMK AO2 SLP106 60000 T02220133 10233 20178 56015

TAF PANC
Valide du 24 à 00h jusqu'au 25 à 06h UTC


232326Z 2400/2506 17015G26KT P6SM SCT050 BKN060
FM240300 16014G27KT P6SM -SHRA SCT035 BKN050
FM240600 17012G20KT 6SM RA BKN025 OVC035
FM240900 17014G20KT 6SM -RA OVC050
FM241800 14009KT P6SM -SHRA SCT025 BKN040 OVC060
FIR PAZA / Amérique du Nord



MET'MAP, la Météo Aéronautique d'un coup d'oeil ! - Copyright ORBIFLY Décembre 2007 - Disclaimer

ORBIFLY MET'MAP TEAM :

Programmation & Développement : Alexandra Zaïnal
Conception & Développement : Baudouin d'Aumeries
Co-Programmation & Développement : Marc-Olivier Méhu
Soutien technique & logistique : Manuel Goepfert

Contact : metmap@orbifly.com




SOURCES & CREDITS :

   NOAA       Earth
Advisory